sensor_id;sensor_type;location;lat;lon;timestamp;pressure;altitude;pressure_sealevel;temperature;humidity
59391;BME280;53405;57.012;40.984;2022-07-06T00:01:21;99947.59;;;21.07;58.16
59391;BME280;53405;57.012;40.984;2022-07-06T00:04:07;99951.25;;;21.01;58.60
59391;BME280;53405;57.012;40.984;2022-07-06T00:06:53;99939.88;;;21.11;58.94
59391;BME280;53405;57.012;40.984;2022-07-06T00:09:41;99946.59;;;21.14;59.64
59391;BME280;53405;57.012;40.984;2022-07-06T00:12:26;99940.19;;;21.15;59.16
59391;BME280;53405;57.012;40.984;2022-07-06T00:15:12;99942.72;;;21.04;59.70
59391;BME280;53405;57.012;40.984;2022-07-06T00:17:39;99946.28;;;20.88;60.09
59391;BME280;53405;57.012;40.984;2022-07-06T00:20:25;99941.59;;;20.78;60.48
59391;BME280;53405;57.012;40.984;2022-07-06T00:23:11;99940.03;;;20.82;60.38
59391;BME280;53405;57.012;40.984;2022-07-06T00:25:57;99944.66;;;20.87;60.40
59391;BME280;53405;57.012;40.984;2022-07-06T00:28:45;99942.47;;;20.84;60.63
59391;BME280;53405;57.012;40.984;2022-07-06T00:31:30;99946.63;;;20.74;60.83
59391;BME280;53405;57.012;40.984;2022-07-06T00:34:18;99936.34;;;20.66;61.31
59391;BME280;53405;57.012;40.984;2022-07-06T00:37:04;99936.91;;;20.68;61.13
59391;BME280;53405;57.012;40.984;2022-07-06T00:39:49;99943.19;;;20.62;61.18
59391;BME280;53405;57.012;40.984;2022-07-06T00:42:44;99947.38;;;20.53;61.83
59391;BME280;53405;57.012;40.984;2022-07-06T00:45:30;99943.31;;;20.33;62.38
59391;BME280;53405;57.012;40.984;2022-07-06T00:48:15;99946.53;;;20.35;62.54
59391;BME280;53405;57.012;40.984;2022-07-06T00:51:03;99945.00;;;20.39;62.61
59391;BME280;53405;57.012;40.984;2022-07-06T00:53:48;99954.31;;;20.37;62.61
59391;BME280;53405;57.012;40.984;2022-07-06T00:56:35;99947.38;;;20.36;62.95
59391;BME280;53405;57.012;40.984;2022-07-06T00:59:23;99945.50;;;20.36;62.93
59391;BME280;53405;57.012;40.984;2022-07-06T01:02:09;99947.94;;;20.38;63.13
59391;BME280;53405;57.012;40.984;2022-07-06T01:04:55;99962.19;;;20.27;63.59
59391;BME280;53405;57.012;40.984;2022-07-06T01:07:42;99954.56;;;20.18;63.80
59391;BME280;53405;57.012;40.984;2022-07-06T01:10:28;99953.50;;;20.02;64.68
59391;BME280;53405;57.012;40.984;2022-07-06T01:13:14;99955.13;;;20.03;64.79
59391;BME280;53405;57.012;40.984;2022-07-06T01:16:00;99954.47;;;20.13;64.51
59391;BME280;53405;57.012;40.984;2022-07-06T01:18:45;99953.75;;;20.18;64.52
59391;BME280;53405;57.012;40.984;2022-07-06T01:21:33;99954.06;;;20.38;63.89
59391;BME280;53405;57.012;40.984;2022-07-06T01:24:18;99951.25;;;20.45;63.89
59391;BME280;53405;57.012;40.984;2022-07-06T01:27:05;99957.16;;;20.47;63.76
59391;BME280;53405;57.012;40.984;2022-07-06T01:29:51;99950.78;;;20.48;64.16
59391;BME280;53405;57.012;40.984;2022-07-06T01:32:37;99958.13;;;20.41;64.48
59391;BME280;53405;57.012;40.984;2022-07-06T01:35:26;99941.19;;;20.35;64.93
59391;BME280;53405;57.012;40.984;2022-07-06T01:38:15;99955.63;;;20.51;64.70
59391;BME280;53405;57.012;40.984;2022-07-06T01:41:05;99962.09;;;20.55;64.58
59391;BME280;53405;57.012;40.984;2022-07-06T01:43:51;99957.22;;;20.52;65.36
59391;BME280;53405;57.012;40.984;2022-07-06T01:46:37;99958.06;;;20.53;65.69
59391;BME280;53405;57.012;40.984;2022-07-06T01:49:26;99953.94;;;20.45;66.47
59391;BME280;53405;57.012;40.984;2022-07-06T01:52:13;99959.09;;;20.35;66.71
59391;BME280;53405;57.012;40.984;2022-07-06T01:54:59;99958.31;;;20.34;66.80
59391;BME280;53405;57.012;40.984;2022-07-06T01:57:47;99958.06;;;20.36;67.08
59391;BME280;53405;57.012;40.984;2022-07-06T02:00:33;99946.41;;;20.42;66.97
59391;BME280;53405;57.012;40.984;2022-07-06T02:03:21;99949.81;;;20.37;67.16
59391;BME280;53405;57.012;40.984;2022-07-06T02:06:07;99962.09;;;20.38;67.52
59391;BME280;53405;57.012;40.984;2022-07-06T02:08:53;99964.22;;;20.36;67.40
59391;BME280;53405;57.012;40.984;2022-07-06T02:11:39;99965.19;;;20.30;67.87
59391;BME280;53405;57.012;40.984;2022-07-06T02:14:26;99966.41;;;20.39;68.05
59391;BME280;53405;57.012;40.984;2022-07-06T02:17:12;99957.91;;;20.43;67.75
59391;BME280;53405;57.012;40.984;2022-07-06T02:19:59;99961.59;;;20.42;68.50
59391;BME280;53405;57.012;40.984;2022-07-06T02:22:44;99932.84;;;20.32;68.51
59391;BME280;53405;57.012;40.984;2022-07-06T02:25:32;99942.34;;;20.39;68.51
59391;BME280;53405;57.012;40.984;2022-07-06T02:28:18;99949.63;;;20.27;68.85
59391;BME280;53405;57.012;40.984;2022-07-06T02:31:05;99947.84;;;20.16;69.18
59391;BME280;53405;57.012;40.984;2022-07-06T02:33:51;99952.31;;;20.10;69.48
59391;BME280;53405;57.012;40.984;2022-07-06T02:36:37;99962.16;;;20.10;69.62
59391;BME280;53405;57.012;40.984;2022-07-06T02:39:23;99969.47;;;20.14;69.58
59391;BME280;53405;57.012;40.984;2022-07-06T02:42:10;99959.69;;;20.20;69.54
59391;BME280;53405;57.012;40.984;2022-07-06T02:44:56;99949.22;;;20.18;69.60
59391;BME280;53405;57.012;40.984;2022-07-06T02:47:43;99952.53;;;20.26;69.56
59391;BME280;53405;57.012;40.984;2022-07-06T02:50:29;99951.31;;;20.33;69.40
59391;BME280;53405;57.012;40.984;2022-07-06T02:53:17;99952.00;;;20.40;69.23
59391;BME280;53405;57.012;40.984;2022-07-06T02:56:06;99960.00;;;20.57;69.12
59391;BME280;53405;57.012;40.984;2022-07-06T02:58:53;99955.38;;;20.70;68.32
59391;BME280;53405;57.012;40.984;2022-07-06T03:01:39;99943.84;;;20.52;68.21
59391;BME280;53405;57.012;40.984;2022-07-06T03:04:25;99956.69;;;20.67;68.80
59391;BME280;53405;57.012;40.984;2022-07-06T03:06:52;99959.50;;;20.78;68.52
59391;BME280;53405;57.012;40.984;2022-07-06T03:09:28;99961.69;;;20.81;68.57
59391;BME280;53405;57.012;40.984;2022-07-06T03:12:14;99968.00;;;20.91;68.40
59391;BME280;53405;57.012;40.984;2022-07-06T03:15:02;99972.19;;;21.04;68.41
59391;BME280;53405;57.012;40.984;2022-07-06T03:17:50;99967.41;;;21.06;68.36
59391;BME280;53405;57.012;40.984;2022-07-06T03:20:37;99972.31;;;21.15;68.38
59391;BME280;53405;57.012;40.984;2022-07-06T03:23:26;99965.78;;;21.05;68.48
59391;BME280;53405;57.012;40.984;2022-07-06T03:26:12;99979.16;;;21.27;68.15
59391;BME280;53405;57.012;40.984;2022-07-06T03:28:59;99981.91;;;21.33;68.05
59391;BME280;53405;57.012;40.984;2022-07-06T03:31:45;99982.78;;;21.38;67.87
59391;BME280;53405;57.012;40.984;2022-07-06T03:34:31;99980.41;;;21.42;67.69
59391;BME280;53405;57.012;40.984;2022-07-06T03:37:18;99958.44;;;21.40;67.44
59391;BME280;53405;57.012;40.984;2022-07-06T03:39:45;99966.97;;;21.59;67.08
59391;BME280;53405;57.012;40.984;2022-07-06T03:42:14;99971.75;;;21.57;67.31
59391;BME280;53405;57.012;40.984;2022-07-06T03:45:00;99968.41;;;21.44;67.75
59391;BME280;53405;57.012;40.984;2022-07-06T03:47:48;99965.22;;;21.47;67.82
59391;BME280;53405;57.012;40.984;2022-07-06T03:50:34;99945.59;;;21.42;67.85
59391;BME280;53405;57.012;40.984;2022-07-06T03:53:20;99953.38;;;21.65;67.48
59391;BME280;53405;57.012;40.984;2022-07-06T03:56:06;99951.66;;;21.81;67.10
59391;BME280;53405;57.012;40.984;2022-07-06T03:59:11;99952.94;;;22.01;66.47
59391;BME280;53405;57.012;40.984;2022-07-06T04:01:58;99947.94;;;22.15;66.25
59391;BME280;53405;57.012;40.984;2022-07-06T04:04:44;99951.22;;;22.22;65.97
59391;BME280;53405;57.012;40.984;2022-07-06T04:07:30;99950.53;;;22.37;65.91
59391;BME280;53405;57.012;40.984;2022-07-06T04:10:17;99957.16;;;22.29;65.89
59391;BME280;53405;57.012;40.984;2022-07-06T04:13:03;99954.06;;;22.37;65.73
59391;BME280;53405;57.012;40.984;2022-07-06T04:15:50;99954.59;;;22.40;66.13
59391;BME280;53405;57.012;40.984;2022-07-06T04:18:36;99949.03;;;22.19;66.37
59391;BME280;53405;57.012;40.984;2022-07-06T04:21:24;99961.84;;;22.12;66.87
59391;BME280;53405;57.012;40.984;2022-07-06T04:24:10;99966.94;;;22.13;67.16
59391;BME280;53405;57.012;40.984;2022-07-06T04:26:57;99964.53;;;22.12;67.40
59391;BME280;53405;57.012;40.984;2022-07-06T04:29:43;99960.50;;;22.09;67.47
59391;BME280;53405;57.012;40.984;2022-07-06T04:32:29;99970.00;;;22.22;67.37
59391;BME280;53405;57.012;40.984;2022-07-06T04:35:16;99964.97;;;22.31;66.96
59391;BME280;53405;57.012;40.984;2022-07-06T04:38:04;99966.69;;;22.42;66.91
59391;BME280;53405;57.012;40.984;2022-07-06T04:40:51;99959.25;;;22.54;66.48
59391;BME280;53405;57.012;40.984;2022-07-06T04:43:38;99965.56;;;22.70;66.08
59391;BME280;53405;57.012;40.984;2022-07-06T04:46:24;99959.72;;;22.84;65.94
59391;BME280;53405;57.012;40.984;2022-07-06T04:49:11;99973.13;;;22.84;65.48
59391;BME280;53405;57.012;40.984;2022-07-06T04:51:58;99960.50;;;22.84;65.54
59391;BME280;53405;57.012;40.984;2022-07-06T04:54:45;99963.75;;;22.86;65.71
59391;BME280;53405;57.012;40.984;2022-07-06T04:57:32;99957.03;;;22.89;65.23
59391;BME280;53405;57.012;40.984;2022-07-06T05:00:19;99956.25;;;22.88;64.90
59391;BME280;53405;57.012;40.984;2022-07-06T05:03:08;99956.03;;;23.00;65.55
59391;BME280;53405;57.012;40.984;2022-07-06T05:05:54;99949.97;;;23.15;64.90
59391;BME280;53405;57.012;40.984;2022-07-06T05:08:40;99944.34;;;23.22;64.91
59391;BME280;53405;57.012;40.984;2022-07-06T05:11:29;99948.72;;;23.38;64.77
59391;BME280;53405;57.012;40.984;2022-07-06T05:14:15;99939.00;;;23.32;64.46
59391;BME280;53405;57.012;40.984;2022-07-06T05:17:01;99945.50;;;23.41;64.75
59391;BME280;53405;57.012;40.984;2022-07-06T05:19:47;99945.50;;;23.57;64.46
59391;BME280;53405;57.012;40.984;2022-07-06T05:22:33;99938.50;;;23.51;64.00
59391;BME280;53405;57.012;40.984;2022-07-06T05:25:21;99939.59;;;23.55;63.89
59391;BME280;53405;57.012;40.984;2022-07-06T05:28:08;99942.28;;;23.55;63.64
59391;BME280;53405;57.012;40.984;2022-07-06T05:30:37;99934.75;;;23.47;63.82
59391;BME280;53405;57.012;40.984;2022-07-06T05:33:23;99931.00;;;23.63;63.80
59391;BME280;53405;57.012;40.984;2022-07-06T05:36:09;99934.00;;;23.77;62.95
59391;BME280;53405;57.012;40.984;2022-07-06T05:38:56;99932.69;;;23.85;62.75
59391;BME280;53405;57.012;40.984;2022-07-06T05:41:43;99916.81;;;23.83;62.74
59391;BME280;53405;57.012;40.984;2022-07-06T05:44:29;99939.94;;;23.99;62.25
59391;BME280;53405;57.012;40.984;2022-07-06T05:47:16;99932.19;;;24.03;62.69
59391;BME280;53405;57.012;40.984;2022-07-06T05:50:20;99937.81;;;24.22;61.60
59391;BME280;53405;57.012;40.984;2022-07-06T05:53:10;99933.78;;;24.35;61.45
59391;BME280;53405;57.012;40.984;2022-07-06T05:56:03;99927.31;;;24.36;60.98
59391;BME280;53405;57.012;40.984;2022-07-06T05:58:50;99931.59;;;24.47;60.83
59391;BME280;53405;57.012;40.984;2022-07-06T06:01:19;99938.31;;;24.50;60.62
59391;BME280;53405;57.012;40.984;2022-07-06T06:04:13;99934.81;;;24.54;60.30
59391;BME280;53405;57.012;40.984;2022-07-06T06:07:00;99930.81;;;24.57;60.15
59391;BME280;53405;57.012;40.984;2022-07-06T06:09:47;99934.00;;;24.69;59.59
59391;BME280;53405;57.012;40.984;2022-07-06T06:12:33;99933.13;;;24.89;58.86
59391;BME280;53405;57.012;40.984;2022-07-06T06:15:19;99934.16;;;24.99;58.39
59391;BME280;53405;57.012;40.984;2022-07-06T06:18:05;99932.31;;;24.89;58.47
59391;BME280;53405;57.012;40.984;2022-07-06T06:20:51;99916.41;;;24.93;58.77
59391;BME280;53405;57.012;40.984;2022-07-06T06:23:37;99931.47;;;25.04;58.89
59391;BME280;53405;57.012;40.984;2022-07-06T06:26:23;99936.53;;;25.16;58.78
59391;BME280;53405;57.012;40.984;2022-07-06T06:29:09;99918.84;;;24.99;58.20
59391;BME280;53405;57.012;40.984;2022-07-06T06:31:40;99949.50;;;25.09;57.33
59391;BME280;53405;57.012;40.984;2022-07-06T06:34:26;99945.44;;;25.11;57.40
59391;BME280;53405;57.012;40.984;2022-07-06T06:37:11;99943.25;;;25.23;57.72
59391;BME280;53405;57.012;40.984;2022-07-06T06:39:57;99941.25;;;25.45;57.62
59391;BME280;53405;57.012;40.984;2022-07-06T06:42:43;99934.19;;;25.59;57.33
59391;BME280;53405;57.012;40.984;2022-07-06T06:45:31;99934.66;;;25.66;56.76
59391;BME280;53405;57.012;40.984;2022-07-06T06:47:58;99936.75;;;25.79;56.21
59391;BME280;53405;57.012;40.984;2022-07-06T06:50:26;99931.38;;;25.74;56.38
59391;BME280;53405;57.012;40.984;2022-07-06T06:53:12;99934.34;;;25.78;56.52
59391;BME280;53405;57.012;40.984;2022-07-06T06:55:58;99926.63;;;25.61;57.19
59391;BME280;53405;57.012;40.984;2022-07-06T06:58:26;99926.38;;;25.57;57.56
59391;BME280;53405;57.012;40.984;2022-07-06T07:00:54;99928.44;;;25.71;56.89
59391;BME280;53405;57.012;40.984;2022-07-06T07:03:22;99938.38;;;25.75;56.60
59391;BME280;53405;57.012;40.984;2022-07-06T07:05:49;99931.28;;;25.90;57.16
59391;BME280;53405;57.012;40.984;2022-07-06T07:08:16;99906.63;;;26.07;56.20
59391;BME280;53405;57.012;40.984;2022-07-06T07:10:44;99923.97;;;26.30;54.44
59391;BME280;53405;57.012;40.984;2022-07-06T07:13:12;99939.19;;;26.45;54.47
59391;BME280;53405;57.012;40.984;2022-07-06T07:15:39;99940.75;;;26.51;54.06
59391;BME280;53405;57.012;40.984;2022-07-06T07:18:06;99946.41;;;26.25;53.59
59391;BME280;53405;57.012;40.984;2022-07-06T07:20:35;99937.59;;;26.09;54.55
59391;BME280;53405;57.012;40.984;2022-07-06T07:23:02;99933.28;;;26.13;54.78
59391;BME280;53405;57.012;40.984;2022-07-06T07:25:30;99933.56;;;26.41;54.27
59391;BME280;53405;57.012;40.984;2022-07-06T07:27:57;99936.81;;;26.67;52.94
59391;BME280;53405;57.012;40.984;2022-07-06T07:30:25;99933.09;;;26.58;52.69
59391;BME280;53405;57.012;40.984;2022-07-06T07:32:52;99934.09;;;26.73;52.08
59391;BME280;53405;57.012;40.984;2022-07-06T07:35:22;99913.50;;;26.77;51.26
59391;BME280;53405;57.012;40.984;2022-07-06T07:37:50;99932.53;;;26.91;51.40
59391;BME280;53405;57.012;40.984;2022-07-06T07:40:17;99924.53;;;27.04;51.48
59391;BME280;53405;57.012;40.984;2022-07-06T07:43:03;99930.94;;;27.09;51.61
59391;BME280;53405;57.012;40.984;2022-07-06T07:45:49;99921.84;;;27.23;51.12
59391;BME280;53405;57.012;40.984;2022-07-06T07:48:35;99929.13;;;27.47;51.32
59391;BME280;53405;57.012;40.984;2022-07-06T07:51:21;99926.41;;;27.47;50.19
59391;BME280;53405;57.012;40.984;2022-07-06T07:54:07;99923.19;;;27.64;49.86
59391;BME280;53405;57.012;40.984;2022-07-06T07:56:53;99927.41;;;27.89;48.35
59391;BME280;53405;57.012;40.984;2022-07-06T07:59:40;99924.75;;;27.84;48.80
59391;BME280;53405;57.012;40.984;2022-07-06T08:02:27;99927.25;;;28.00;47.34
59391;BME280;53405;57.012;40.984;2022-07-06T08:04:54;99924.41;;;27.91;47.24
59391;BME280;53405;57.012;40.984;2022-07-06T08:07:22;99924.75;;;28.03;47.46
59391;BME280;53405;57.012;40.984;2022-07-06T08:09:49;99927.75;;;28.02;47.54
59391;BME280;53405;57.012;40.984;2022-07-06T08:12:16;99922.34;;;28.02;47.67
59391;BME280;53405;57.012;40.984;2022-07-06T08:14:43;99928.63;;;28.16;47.84
59391;BME280;53405;57.012;40.984;2022-07-06T08:17:10;99926.25;;;28.42;46.90
59391;BME280;53405;57.012;40.984;2022-07-06T08:19:38;99922.59;;;28.80;44.98
59391;BME280;53405;57.012;40.984;2022-07-06T08:22:05;99924.81;;;28.64;45.57
59391;BME280;53405;57.012;40.984;2022-07-06T08:24:34;99927.72;;;28.68;44.14
59391;BME280;53405;57.012;40.984;2022-07-06T08:27:02;99929.75;;;28.29;44.26
59391;BME280;53405;57.012;40.984;2022-07-06T08:29:31;99927.91;;;27.91;45.93
59391;BME280;53405;57.012;40.984;2022-07-06T08:31:58;99931.19;;;28.07;45.85
59391;BME280;53405;57.012;40.984;2022-07-06T08:34:29;99924.09;;;28.58;45.50
59391;BME280;53405;57.012;40.984;2022-07-06T08:36:59;99922.41;;;28.76;45.17
59391;BME280;53405;57.012;40.984;2022-07-06T08:39:27;99903.13;;;28.92;44.83
59391;BME280;53405;57.012;40.984;2022-07-06T08:41:56;99933.31;;;29.63;42.06
59391;BME280;53405;57.012;40.984;2022-07-06T08:44:24;99909.59;;;29.91;42.22
59391;BME280;53405;57.012;40.984;2022-07-06T08:46:54;99927.72;;;30.05;41.38
59391;BME280;53405;57.012;40.984;2022-07-06T08:49:22;99926.09;;;30.26;41.55
59391;BME280;53405;57.012;40.984;2022-07-06T08:51:50;99930.03;;;30.20;41.16
59391;BME280;53405;57.012;40.984;2022-07-06T08:54:20;99930.75;;;30.35;41.16
59391;BME280;53405;57.012;40.984;2022-07-06T08:56:49;99919.69;;;30.54;41.08
59391;BME280;53405;57.012;40.984;2022-07-06T08:59:17;99932.53;;;30.71;40.39
59391;BME280;53405;57.012;40.984;2022-07-06T09:01:45;99928.47;;;30.99;40.54
59391;BME280;53405;57.012;40.984;2022-07-06T09:04:18;99932.38;;;31.25;40.28
59391;BME280;53405;57.012;40.984;2022-07-06T09:06:46;99927.13;;;31.46;39.37
59391;BME280;53405;57.012;40.984;2022-07-06T09:09:19;99929.50;;;31.30;39.45
59391;BME280;53405;57.012;40.984;2022-07-06T09:11:48;99902.34;;;30.72;40.11
59391;BME280;53405;57.012;40.984;2022-07-06T09:14:17;99920.69;;;30.67;40.87
59391;BME280;53405;57.012;40.984;2022-07-06T09:16:48;99920.94;;;30.48;41.28
59391;BME280;53405;57.012;40.984;2022-07-06T09:19:36;99921.19;;;31.17;39.79
59391;BME280;53405;57.012;40.984;2022-07-06T09:22:29;99915.63;;;31.66;37.18
59391;BME280;53405;57.012;40.984;2022-07-06T09:25:18;99922.78;;;31.27;38.52
59391;BME280;53405;57.012;40.984;2022-07-06T09:28:06;99911.44;;;31.43;38.57
59391;BME280;53405;57.012;40.984;2022-07-06T09:30:55;99911.41;;;32.04;37.60
59391;BME280;53405;57.012;40.984;2022-07-06T09:33:54;99910.63;;;31.95;38.58
59391;BME280;53405;57.012;40.984;2022-07-06T09:36:47;99902.16;;;31.61;38.10
59391;BME280;53405;57.012;40.984;2022-07-06T09:39:35;99895.84;;;30.91;39.93
59391;BME280;53405;57.012;40.984;2022-07-06T09:42:26;99907.44;;;30.34;39.86
59391;BME280;53405;57.012;40.984;2022-07-06T09:45:20;99904.09;;;29.83;41.40
59391;BME280;53405;57.012;40.984;2022-07-06T09:48:16;99909.53;;;29.83;41.89
59391;BME280;53405;57.012;40.984;2022-07-06T09:51:08;99900.59;;;29.60;41.50
59391;BME280;53405;57.012;40.984;2022-07-06T09:53:58;99898.00;;;29.77;41.21
59391;BME280;53405;57.012;40.984;2022-07-06T09:56:48;99900.25;;;30.69;40.06
59391;BME280;53405;57.012;40.984;2022-07-06T09:59:38;99904.19;;;31.12;38.85
59391;BME280;53405;57.012;40.984;2022-07-06T10:02:26;99905.34;;;31.28;39.90
59391;BME280;53405;57.012;40.984;2022-07-06T10:05:16;99891.50;;;32.21;37.66
59391;BME280;53405;57.012;40.984;2022-07-06T10:08:06;99908.69;;;31.95;36.53
59391;BME280;53405;57.012;40.984;2022-07-06T10:10:56;99893.66;;;31.10;38.59
59391;BME280;53405;57.012;40.984;2022-07-06T10:13:47;99902.78;;;31.93;37.05
59391;BME280;53405;57.012;40.984;2022-07-06T10:16:37;99906.66;;;32.78;35.14
59391;BME280;53405;57.012;40.984;2022-07-06T10:19:26;99906.66;;;33.29;33.77
59391;BME280;53405;57.012;40.984;2022-07-06T10:22:14;99906.59;;;33.38;34.38
59391;BME280;53405;57.012;40.984;2022-07-06T10:25:02;99895.25;;;33.06;35.05
59391;BME280;53405;57.012;40.984;2022-07-06T10:27:52;99903.59;;;32.80;35.62
59391;BME280;53405;57.012;40.984;2022-07-06T10:30:20;99891.66;;;32.24;35.80
59391;BME280;53405;57.012;40.984;2022-07-06T10:33:07;99886.31;;;31.55;37.73
59391;BME280;53405;57.012;40.984;2022-07-06T10:35:54;99873.47;;;31.03;38.34
59391;BME280;53405;57.012;40.984;2022-07-06T10:38:48;99887.00;;;30.36;40.44
59391;BME280;53405;57.012;40.984;2022-07-06T10:41:34;99880.09;;;30.30;39.32
59391;BME280;53405;57.012;40.984;2022-07-06T10:44:24;99882.66;;;30.26;39.11
59391;BME280;53405;57.012;40.984;2022-07-06T10:47:11;99877.59;;;30.83;38.66
59391;BME280;53405;57.012;40.984;2022-07-06T10:50:01;99874.75;;;31.14;38.67
59391;BME280;53405;57.012;40.984;2022-07-06T10:52:58;99882.09;;;30.96;39.67
59391;BME280;53405;57.012;40.984;2022-07-06T10:55:46;99884.66;;;30.92;38.70
59391;BME280;53405;57.012;40.984;2022-07-06T10:58:37;99881.84;;;30.66;39.37
59391;BME280;53405;57.012;40.984;2022-07-06T11:01:06;99880.59;;;30.72;40.16
59391;BME280;53405;57.012;40.984;2022-07-06T11:03:48;99885.81;;;31.26;39.63
59391;BME280;53405;57.012;40.984;2022-07-06T11:06:37;99879.28;;;32.27;37.57
59391;BME280;53405;57.012;40.984;2022-07-06T11:09:32;99880.75;;;33.14;35.54
59391;BME280;53405;57.012;40.984;2022-07-06T11:12:18;99877.97;;;33.44;35.65
59391;BME280;53405;57.012;40.984;2022-07-06T11:15:04;99881.88;;;33.55;35.07
59391;BME280;53405;57.012;40.984;2022-07-06T11:18:11;99880.66;;;33.86;33.93
59391;BME280;53405;57.012;40.984;2022-07-06T11:20:39;99885.91;;;34.03;34.08
59391;BME280;53405;57.012;40.984;2022-07-06T11:23:07;99891.22;;;34.46;32.94
59391;BME280;53405;57.012;40.984;2022-07-06T11:25:34;99884.50;;;34.55;33.15
59391;BME280;53405;57.012;40.984;2022-07-06T11:28:02;99877.56;;;34.70;32.90
59391;BME280;53405;57.012;40.984;2022-07-06T11:30:30;99880.81;;;35.13;33.03
59391;BME280;53405;57.012;40.984;2022-07-06T11:33:00;99874.47;;;34.84;32.20
59391;BME280;53405;57.012;40.984;2022-07-06T11:35:46;99870.72;;;34.52;32.92
59391;BME280;53405;57.012;40.984;2022-07-06T11:38:32;99876.88;;;34.36;33.58
59391;BME280;53405;57.012;40.984;2022-07-06T11:41:18;99866.41;;;34.76;32.48
59391;BME280;53405;57.012;40.984;2022-07-06T11:44:05;99858.13;;;33.89;33.00
59391;BME280;53405;57.012;40.984;2022-07-06T11:46:51;99855.72;;;33.54;33.76
59391;BME280;53405;57.012;40.984;2022-07-06T11:49:40;99861.94;;;33.42;33.13
59391;BME280;53405;57.012;40.984;2022-07-06T11:52:26;99866.94;;;32.68;34.67
59391;BME280;53405;57.012;40.984;2022-07-06T11:55:14;99860.91;;;32.84;34.28
59391;BME280;53405;57.012;40.984;2022-07-06T11:58:01;99857.97;;;33.40;33.36
59391;BME280;53405;57.012;40.984;2022-07-06T12:00:29;99865.75;;;33.29;34.07
59391;BME280;53405;57.012;40.984;2022-07-06T12:03:01;99859.75;;;33.14;33.36
59391;BME280;53405;57.012;40.984;2022-07-06T12:05:31;99854.28;;;33.14;33.15
59391;BME280;53405;57.012;40.984;2022-07-06T12:08:08;99851.00;;;33.42;32.46
59391;BME280;53405;57.012;40.984;2022-07-06T12:10:36;99865.19;;;33.36;33.61
59391;BME280;53405;57.012;40.984;2022-07-06T12:13:05;99862.19;;;33.49;33.04
59391;BME280;53405;57.012;40.984;2022-07-06T12:15:51;99859.72;;;33.90;32.78
59391;BME280;53405;57.012;40.984;2022-07-06T12:18:40;99858.38;;;34.09;31.91
59391;BME280;53405;57.012;40.984;2022-07-06T12:21:27;99858.69;;;33.82;32.42
59391;BME280;53405;57.012;40.984;2022-07-06T12:23:56;99858.97;;;34.14;32.71
59391;BME280;53405;57.012;40.984;2022-07-06T12:26:25;99862.38;;;34.73;31.13
59391;BME280;53405;57.012;40.984;2022-07-06T12:31:58;99843.16;;;34.20;31.76
59391;BME280;53405;57.012;40.984;2022-07-06T12:34:28;99833.59;;;34.14;32.23
59391;BME280;53405;57.012;40.984;2022-07-06T12:37:20;99841.50;;;33.82;31.62
59391;BME280;53405;57.012;40.984;2022-07-06T12:40:14;99841.75;;;33.22;32.80
59391;BME280;53405;57.012;40.984;2022-07-06T12:43:00;99828.69;;;32.26;32.86
59391;BME280;53405;57.012;40.984;2022-07-06T12:45:46;99833.50;;;31.47;34.54
59391;BME280;53405;57.012;40.984;2022-07-06T12:48:14;99845.03;;;31.26;35.11
59391;BME280;53405;57.012;40.984;2022-07-06T12:50:41;99814.63;;;31.15;35.45
59391;BME280;53405;57.012;40.984;2022-07-06T12:53:30;99838.16;;;31.29;36.05
59391;BME280;53405;57.012;40.984;2022-07-06T12:56:10;99835.44;;;31.20;36.32
59391;BME280;53405;57.012;40.984;2022-07-06T12:58:38;99827.75;;;31.22;36.65
59391;BME280;53405;57.012;40.984;2022-07-06T13:01:24;99836.09;;;31.08;36.54
59391;BME280;53405;57.012;40.984;2022-07-06T13:04:10;99828.81;;;30.69;37.82
59391;BME280;53405;57.012;40.984;2022-07-06T13:06:38;99828.63;;;30.65;37.72
59391;BME280;53405;57.012;40.984;2022-07-06T13:09:05;99830.91;;;30.72;37.99
59391;BME280;53405;57.012;40.984;2022-07-06T13:11:32;99829.47;;;30.92;37.94
59391;BME280;53405;57.012;40.984;2022-07-06T13:14:00;99820.88;;;31.07;38.01
59391;BME280;53405;57.012;40.984;2022-07-06T13:16:27;99825.50;;;31.15;37.23
59391;BME280;53405;57.012;40.984;2022-07-06T13:19:01;99829.03;;;30.98;36.61
59391;BME280;53405;57.012;40.984;2022-07-06T13:21:29;99823.72;;;30.85;36.33
59391;BME280;53405;57.012;40.984;2022-07-06T13:23:56;99827.06;;;30.90;37.15
59391;BME280;53405;57.012;40.984;2022-07-06T13:26:24;99834.91;;;30.92;37.89
59391;BME280;53405;57.012;40.984;2022-07-06T13:28:51;99831.34;;;30.56;36.91
59391;BME280;53405;57.012;40.984;2022-07-06T13:31:19;99824.38;;;30.33;36.95
59391;BME280;53405;57.012;40.984;2022-07-06T13:33:46;99818.94;;;30.33;37.68
59391;BME280;53405;57.012;40.984;2022-07-06T13:36:14;99826.72;;;30.17;38.28
59391;BME280;53405;57.012;40.984;2022-07-06T13:38:42;99831.81;;;30.18;38.30
59391;BME280;53405;57.012;40.984;2022-07-06T13:41:10;99800.66;;;30.07;37.43
59391;BME280;53405;57.012;40.984;2022-07-06T13:43:37;99820.03;;;30.32;37.42
59391;BME280;53405;57.012;40.984;2022-07-06T13:46:24;99827.47;;;30.40;37.59
59391;BME280;53405;57.012;40.984;2022-07-06T13:49:10;99818.50;;;30.39;36.54
59391;BME280;53405;57.012;40.984;2022-07-06T13:51:56;99821.50;;;30.38;37.56
59391;BME280;53405;57.012;40.984;2022-07-06T13:54:48;99818.91;;;30.24;38.09
59391;BME280;53405;57.012;40.984;2022-07-06T13:57:34;99817.44;;;30.18;38.02
59391;BME280;53405;57.012;40.984;2022-07-06T14:00:20;99799.28;;;29.96;38.36
59391;BME280;53405;57.012;40.984;2022-07-06T14:03:06;99816.03;;;29.89;38.35
59391;BME280;53405;57.012;40.984;2022-07-06T14:05:53;99816.97;;;29.84;38.88
59391;BME280;53405;57.012;40.984;2022-07-06T14:08:40;99802.97;;;29.91;38.66